Time;durP1;ratioP1;P1;durP2;ratioP2;P2;SDS_P1;SDS_P2;PMS_P1;PMS_P2;Temp;Humidity;BMP_temperature;BMP_pressure;BME280_temperature;BME280_humidity;BME280_pressure;Samples;Min_cycle;Max_cycle;Signal;HPM_P1;HPM_P2
2021/08/05 00:01:11;;;;;;;4.93;4.50;;;15.40;99.90;;;;;;5076764;28;20623;-53
2021/08/05 00:03:37;;;;;;;5.50;4.37;;;15.40;99.90;;;;;;5078095;28;20205;-62
2021/08/05 00:06:02;;;;;;;4.67;4.17;;;15.40;99.90;;;;;;5080188;28;20206;-56
2021/08/05 00:08:28;;;;;;;4.50;3.53;;;15.30;99.90;;;;;;5077277;28;20194;-51
2021/08/05 00:10:53;;;;;;;5.50;4.07;;;15.40;99.90;;;;;;5079173;28;20175;-60
2021/08/05 00:13:19;;;;;;;3.97;3.67;;;15.40;99.90;;;;;;5075690;28;20221;-53
2021/08/05 00:15:44;;;;;;;4.90;3.53;;;15.30;99.90;;;;;;5076527;28;20220;-62
2021/08/05 00:18:10;;;;;;;4.80;3.60;;;15.40;99.90;;;;;;5078530;28;20175;-57
2021/08/05 00:20:35;;;;;;;5.10;3.43;;;15.50;99.90;;;;;;5076696;28;20185;-53
2021/08/05 00:23:01;;;;;;;3.83;3.53;;;15.40;99.90;;;;;;5076667;28;20210;-57
2021/08/05 00:25:26;;;;;;;3.40;3.10;;;15.30;99.90;;;;;;5077306;28;20175;-60
2021/08/05 00:27:52;;;;;;;3.83;3.53;;;15.30;99.90;;;;;;5075409;28;20175;-61
2021/08/05 00:30:17;;;;;;;3.77;3.27;;;15.40;99.90;;;;;;5078917;28;20254;-61
2021/08/05 00:32:43;;;;;;;3.53;3.20;;;15.30;99.90;;;;;;5077435;28;20662;-51
2021/08/05 00:35:09;;;;;;;3.40;3.10;;;15.30;99.90;;;;;;5077233;28;20171;-53
2021/08/05 00:37:34;;;;;;;3.40;3.10;;;15.20;99.90;;;;;;5079303;28;20273;-56
2021/08/05 00:40:00;;;;;;;4.00;3.40;;;15.20;99.90;;;;;;5076776;28;20496;-52
2021/08/05 00:42:26;;;;;;;3.70;3.40;;;15.20;99.90;;;;;;5080463;28;20170;-59
2021/08/05 00:44:51;;;;;;;3.00;2.80;;;15.20;99.90;;;;;;5076980;28;20201;-59
2021/08/05 00:47:17;;;;;;;3.63;2.83;;;15.20;99.90;;;;;;5077191;28;20634;-57
2021/08/05 00:49:43;;;;;;;3.33;2.80;;;15.20;99.90;;;;;;5073970;28;20519;-52
2021/08/05 00:52:09;;;;;;;3.23;2.70;;;15.20;99.90;;;;;;5055650;28;20171;-59
2021/08/05 00:54:35;;;;;;;2.97;2.30;;;15.20;99.90;;;;;;5057535;28;20263;-61
2021/08/05 00:57:00;;;;;;;2.23;2.03;;;15.10;99.90;;;;;;5054723;28;20183;-60
2021/08/05 00:59:26;;;;;;;1.80;1.70;;;15.00;99.90;;;;;;5060384;28;20175;-58
2021/08/05 01:02:09;;;;;;;1.83;1.73;;;15.00;99.90;;;;;;5062230;28;20176;-60
2021/08/05 01:04:35;;;;;;;1.83;1.63;;;15.00;99.90;;;;;;5054750;28;20202;-60
2021/08/05 01:07:16;;;;;;;2.37;1.73;;;15.00;99.90;;;;;;5060162;28;20183;-56
2021/08/05 01:09:47;;;;;;;2.67;1.67;;;15.00;99.90;;;;;;5059381;28;20194;-61
2021/08/05 01:12:18;;;;;;;2.53;1.93;;;15.00;99.90;;;;;;5043523;28;20661;-60
2021/08/05 01:14:50;;;;;;;1.63;1.53;;;15.10;99.90;;;;;;5059019;28;20202;-57
2021/08/05 01:17:20;;;;;;;2.50;1.83;;;15.20;99.90;;;;;;5057441;28;20174;-53
2021/08/05 01:19:56;;;;;;;1.93;1.77;;;15.20;99.90;;;;;;5058069;28;20179;-57
2021/08/05 01:22:52;;;;;;;3.43;2.00;;;15.20;99.90;;;;;;5058715;28;20179;-61
2021/08/05 01:25:42;;;;;;;2.93;1.97;;;15.20;99.90;;;;;;5056554;28;20210;-51
2021/08/05 01:28:09;;;;;;;4.07;1.90;;;15.00;99.90;;;;;;5054802;28;20257;-62
2021/08/05 01:30:35;;;;;;;2.60;1.63;;;15.00;99.90;;;;;;5059431;28;20526;-51
2021/08/05 01:33:01;;;;;;;2.40;1.90;;;15.10;99.90;;;;;;5055560;28;20211;-59
2021/08/05 01:35:27;;;;;;;2.10;1.90;;;15.10;99.90;;;;;;5056257;28;20170;-55
2021/08/05 01:37:55;;;;;;;1.90;1.80;;;15.10;99.90;;;;;;5056081;28;20170;-60
2021/08/05 01:40:21;;;;;;;2.70;1.70;;;15.20;99.90;;;;;;5055670;28;20206;-51
2021/08/05 01:42:48;;;;;;;2.20;2.00;;;15.30;99.90;;;;;;5058409;28;20202;-52
2021/08/05 01:45:18;;;;;;;2.53;2.03;;;15.50;99.90;;;;;;5056835;28;20175;-59
2021/08/05 01:47:44;;;;;;;2.00;1.90;;;15.60;99.90;;;;;;5057630;28;20694;-56
2021/08/05 01:50:12;;;;;;;1.93;1.83;;;15.50;99.90;;;;;;5054368;28;20274;-55
2021/08/05 01:52:39;;;;;;;4.00;2.50;;;15.30;99.90;;;;;;5055302;28;20664;-53
2021/08/05 01:55:06;;;;;;;2.90;2.57;;;15.20;99.90;;;;;;5057147;28;20175;-58
2021/08/05 01:57:32;;;;;;;2.43;2.23;;;15.10;99.90;;;;;;5056698;28;20198;-57
2021/08/05 01:59:58;;;;;;;2.50;2.30;;;15.00;99.90;;;;;;5053978;28;20171;-50
2021/08/05 02:02:24;;;;;;;2.60;2.40;;;15.10;99.90;;;;;;5053492;28;20566;-57
2021/08/05 02:05:01;;;;;;;2.50;2.30;;;15.00;99.90;;;;;;5057612;28;20171;-62
2021/08/05 02:07:31;;;;;;;2.40;2.20;;;14.90;99.90;;;;;;5059821;28;20233;-60
2021/08/05 02:10:17;;;;;;;2.57;2.37;;;15.00;99.90;;;;;;5057314;28;20532;-60
2021/08/05 02:12:46;;;;;;;2.50;2.30;;;15.00;99.90;;;;;;5055508;28;20710;-55
2021/08/05 02:15:14;;;;;;;3.37;2.50;;;15.00;99.90;;;;;;5055450;28;20174;-58
2021/08/05 02:17:42;;;;;;;2.73;2.50;;;15.00;99.90;;;;;;5055777;28;20206;-52
2021/08/05 02:20:10;;;;;;;2.47;2.27;;;14.90;99.90;;;;;;5061322;28;20240;-54
2021/08/05 02:22:39;;;;;;;3.53;2.63;;;14.90;99.90;;;;;;5055079;28;20520;-58
2021/08/05 02:25:08;;;;;;;3.30;2.77;;;14.90;99.90;;;;;;5054336;28;20205;-62
2021/08/05 02:27:34;;;;;;;2.90;2.60;;;14.80;99.90;;;;;;5056393;28;20175;-57
2021/08/05 02:30:00;;;;;;;2.70;2.50;;;14.80;99.90;;;;;;5057624;28;20226;-62
2021/08/05 02:32:27;;;;;;;3.90;2.50;;;14.70;99.90;;;;;;5059046;28;20225;-53
2021/08/05 02:34:55;;;;;;;2.87;2.67;;;15.00;99.90;;;;;;5059249;28;20221;-50
2021/08/05 02:37:20;;;;;;;3.00;2.80;;;15.00;99.90;;;;;;5057476;28;20167;-61
2021/08/05 02:39:46;;;;;;;2.80;2.60;;;15.10;99.90;;;;;;5061187;28;20259;-53
2021/08/05 02:42:13;;;;;;;3.57;2.47;;;15.00;99.90;;;;;;5058955;28;20637;-58
2021/08/05 02:44:39;;;;;;;2.90;2.70;;;15.10;99.90;;;;;;5057289;28;20202;-56
2021/08/05 02:47:05;;;;;;;3.00;2.70;;;15.20;99.90;;;;;;5061754;28;20180;-59
2021/08/05 02:49:32;;;;;;;3.23;2.93;;;15.10;99.90;;;;;;5057202;28;20171;-58
2021/08/05 02:51:59;;;;;;;3.20;3.00;;;15.00;99.90;;;;;;5061315;28;20654;-59
2021/08/05 02:54:25;;;;;;;3.10;2.90;;;14.90;99.90;;;;;;5059211;28;20222;-52
2021/08/05 02:56:51;;;;;;;2.80;2.60;;;15.10;99.90;;;;;;5057606;28;20646;-56
2021/08/05 02:59:17;;;;;;;3.30;3.00;;;14.80;99.90;;;;;;5059402;28;20251;-57
2021/08/05 03:01:42;;;;;;;3.63;3.33;;;14.80;99.90;;;;;;5057159;28;20199;-60
2021/08/05 03:04:11;;;;;;;3.20;2.90;;;14.80;99.90;;;;;;5056499;28;20191;-58
2021/08/05 03:06:39;;;;;;;3.70;3.40;;;14.60;99.90;;;;;;5057211;28;20206;-61
2021/08/05 03:09:05;;;;;;;3.40;3.10;;;14.70;99.90;;;;;;5059905;28;20245;-54
2021/08/05 03:11:31;;;;;;;3.70;3.40;;;14.60;99.90;;;;;;5058659;28;20180;-51
2021/08/05 03:13:56;;;;;;;4.77;3.47;;;14.70;99.90;;;;;;5060215;28;20260;-57
2021/08/05 03:16:22;;;;;;;3.90;3.60;;;14.80;99.90;;;;;;5058085;28;20620;-54
2021/08/05 03:18:47;;;;;;;3.70;3.40;;;14.90;99.90;;;;;;5058122;28;20175;-55
2021/08/05 03:21:13;;;;;;;4.13;3.73;;;15.00;99.90;;;;;;5057367;28;20183;-58
2021/08/05 03:23:39;;;;;;;6.87;3.53;;;15.00;99.90;;;;;;5057763;28;20195;-61
2021/08/05 03:26:05;;;;;;;3.97;3.67;;;15.00;99.90;;;;;;5059215;28;20221;-59
2021/08/05 03:28:30;;;;;;;3.80;3.50;;;14.90;99.90;;;;;;5057828;28;20753;-51
2021/08/05 03:30:56;;;;;;;4.40;3.80;;;15.00;99.90;;;;;;5061088;28;20171;-54
2021/08/05 03:33:22;;;;;;;4.23;3.53;;;14.90;99.90;;;;;;5057978;28;20282;-54
2021/08/05 03:35:47;;;;;;;4.23;3.93;;;15.00;99.90;;;;;;5058525;28;20203;-54
2021/08/05 03:38:13;;;;;;;4.07;3.70;;;15.00;99.90;;;;;;5056926;28;20178;-61
2021/08/05 03:40:39;;;;;;;4.50;4.10;;;14.90;99.90;;;;;;5058211;28;20167;-52
2021/08/05 03:43:04;;;;;;;5.80;4.20;;;14.90;99.90;;;;;;5057605;28;20241;-50
2021/08/05 03:45:30;;;;;;;4.13;3.80;;;14.90;99.90;;;;;;5058925;28;20223;-52
2021/08/05 03:47:55;;;;;;;4.40;4.00;;;14.90;99.90;;;;;;5060921;28;20229;-50
2021/08/05 03:50:21;;;;;;;4.13;3.83;;;14.80;99.90;;;;;;5055978;28;20254;-54
2021/08/05 03:52:46;;;;;;;4.70;4.20;;;14.80;99.90;;;;;;5057682;28;20207;-57
2021/08/05 03:55:13;;;;;;;4.77;4.37;;;14.80;99.90;;;;;;5059793;28;20540;-52
2021/08/05 03:57:39;;;;;;;4.67;4.27;;;14.70;99.90;;;;;;5055797;28;20536;-56
2021/08/05 04:00:06;;;;;;;4.57;4.17;;;14.80;99.90;;;;;;5055574;28;20569;-52
2021/08/05 04:02:31;;;;;;;4.67;4.27;;;14.70;99.90;;;;;;5060352;28;20632;-54
2021/08/05 04:04:57;;;;;;;4.60;4.20;;;14.70;99.90;;;;;;5055735;28;20175;-53
2021/08/05 04:07:22;;;;;;;4.90;4.50;;;14.70;99.90;;;;;;5058910;28;20168;-61
2021/08/05 04:09:48;;;;;;;5.30;4.77;;;14.70;99.90;;;;;;5057215;28;20183;-54
2021/08/05 04:12:13;;;;;;;4.60;4.20;;;14.60;99.90;;;;;;5057785;28;20163;-52
2021/08/05 04:14:39;;;;;;;4.87;4.47;;;14.60;99.90;;;;;;5060232;28;20272;-62
2021/08/05 04:17:04;;;;;;;4.60;4.20;;;14.60;99.90;;;;;;5073940;28;20182;-52
2021/08/05 04:19:30;;;;;;;5.00;4.60;;;14.60;99.90;;;;;;5056708;28;20578;-60
2021/08/05 04:21:55;;;;;;;4.87;4.47;;;14.60;99.90;;;;;;5055260;28;20251;-58
2021/08/05 04:24:21;;;;;;;4.97;4.47;;;14.70;99.90;;;;;;5056160;28;20195;-59
2021/08/05 04:26:46;;;;;;;4.93;4.43;;;14.70;99.90;;;;;;5055993;28;20179;-51
2021/08/05 04:29:12;;;;;;;5.47;4.97;;;14.80;99.90;;;;;;5059691;28;20527;-58
2021/08/05 04:31:37;;;;;;;5.30;4.80;;;14.80;99.90;;;;;;5058917;28;20186;-59
2021/08/05 04:34:03;;;;;;;5.37;4.87;;;14.70;99.90;;;;;;5057338;28;20689;-52
2021/08/05 04:36:28;;;;;;;5.50;4.77;;;14.80;99.90;;;;;;5058883;28;20493;-54
2021/08/05 04:38:54;;;;;;;5.30;4.80;;;14.80;99.90;;;;;;5058690;28;20198;-61
2021/08/05 04:41:19;;;;;;;4.90;4.50;;;14.70;99.90;;;;;;5073421;28;20622;-55
2021/08/05 04:43:45;;;;;;;4.83;4.40;;;14.70;99.90;;;;;;5056689;28;20681;-55
2021/08/05 04:46:11;;;;;;;5.07;4.57;;;14.70;99.90;;;;;;5058409;28;20179;-50
2021/08/05 04:48:36;;;;;;;4.60;4.20;;;14.70;99.90;;;;;;5058930;28;20612;-52
2021/08/05 04:51:02;;;;;;;4.53;4.13;;;14.80;99.90;;;;;;5060828;28;20186;-52
2021/08/05 04:53:27;;;;;;;4.73;4.33;;;14.90;99.90;;;;;;5053192;28;20207;-58
2021/08/05 04:55:53;;;;;;;4.60;4.20;;;14.90;99.90;;;;;;5055555;28;20619;-53
2021/08/05 04:58:18;;;;;;;4.10;3.80;;;14.90;99.90;;;;;;5059011;28;20685;-62
2021/08/05 05:00:44;;;;;;;4.20;3.80;;;15.10;99.90;;;;;;5072773;28;20244;-62
2021/08/05 05:03:10;;;;;;;4.53;3.80;;;15.10;99.90;;;;;;5073637;28;20736;-54
2021/08/05 05:05:37;;;;;;;3.93;3.23;;;15.10;99.90;;;;;;5074276;28;20276;-62
2021/08/05 05:08:13;;;;;;;4.10;3.70;;;15.10;99.90;;;;;;5076645;28;20639;-61
2021/08/05 05:10:39;;;;;;;3.80;3.50;;;14.90;99.90;;;;;;5071781;28;20187;-52
2021/08/05 05:13:05;;;;;;;4.63;3.30;;;15.00;99.90;;;;;;5071692;28;20224;-52
2021/08/05 05:15:30;;;;;;;3.93;3.57;;;15.00;99.90;;;;;;5078074;28;20267;-59
2021/08/05 05:17:55;;;;;;;3.87;3.53;;;15.00;99.90;;;;;;5077733;28;20638;-53
2021/08/05 05:20:21;;;;;;;4.37;3.97;;;15.00;99.90;;;;;;5076806;28;20220;-55
2021/08/05 05:22:47;;;;;;;4.23;3.83;;;15.00;99.90;;;;;;5082376;28;20281;-62
2021/08/05 05:25:13;;;;;;;3.57;3.27;;;15.00;99.90;;;;;;5083289;28;20169;-57
2021/08/05 05:27:42;;;;;;;3.60;3.30;;;15.00;99.90;;;;;;5082716;28;20641;-52
2021/08/05 05:30:09;;;;;;;3.70;3.40;;;15.00;99.90;;;;;;5074566;28;20175;-62
2021/08/05 05:32:35;;;;;;;3.33;3.03;;;15.20;99.90;;;;;;5057132;28;20178;-53
2021/08/05 05:35:01;;;;;;;3.20;3.00;;;15.20;99.90;;;;;;5058489;28;20170;-62
2021/08/05 05:37:26;;;;;;;5.23;3.60;;;15.30;99.90;;;;;;5077942;28;20171;-54
2021/08/05 05:39:54;;;;;;;3.57;3.27;;;15.20;99.90;;;;;;5074293;28;20224;-57
2021/08/05 05:42:22;;;;;;;3.00;2.80;;;15.10;99.90;;;;;;5075246;28;20223;-54
2021/08/05 05:44:47;;;;;;;3.57;3.27;;;15.20;99.90;;;;;;5073017;28;20206;-51
2021/08/05 05:47:13;;;;;;;3.20;2.90;;;15.20;99.90;;;;;;5075870;28;20193;-60
2021/08/05 05:49:40;;;;;;;2.97;2.77;;;15.10;99.90;;;;;;5077936;28;20201;-59
2021/08/05 05:52:06;;;;;;;3.20;2.90;;;15.10;99.90;;;;;;5076380;28;20531;-61
2021/08/05 05:54:31;;;;;;;4.30;2.70;;;15.10;99.90;;;;;;5075429;28;20214;-50
2021/08/05 05:56:57;;;;;;;4.30;2.90;;;15.20;99.90;;;;;;5074847;28;20196;-60
2021/08/05 05:59:22;;;;;;;3.53;2.80;;;15.20;99.90;;;;;;5075139;28;20205;-54
2021/08/05 06:01:48;;;;;;;2.60;2.40;;;15.30;99.90;;;;;;5077995;28;20577;-61
2021/08/05 06:04:14;;;;;;;3.07;2.57;;;15.30;99.90;;;;;;5074015;28;20240;-50
2021/08/05 06:06:39;;;;;;;2.90;2.30;;;15.30;99.90;;;;;;5076959;28;20190;-59
2021/08/05 06:09:05;;;;;;;2.83;2.63;;;15.40;99.90;;;;;;5081247;28;20240;-53
2021/08/05 06:11:30;;;;;;;2.80;2.60;;;15.50;99.90;;;;;;5081252;28;20170;-59
2021/08/05 06:13:56;;;;;;;2.33;2.20;;;15.70;99.90;;;;;;5082424;28;20207;-55
2021/08/05 06:16:23;;;;;;;2.30;2.10;;;15.50;99.90;;;;;;5077733;28;20189;-57
2021/08/05 06:18:48;;;;;;;2.20;2.00;;;16.20;99.90;;;;;;5076473;28;20266;-55
2021/08/05 06:21:14;;;;;;;2.07;1.97;;;15.50;99.90;;;;;;5064565;28;20206;-55
2021/08/05 06:23:40;;;;;;;4.97;2.10;;;15.50;99.90;;;;;;5076669;28;20216;-55
2021/08/05 06:26:05;;;;;;;2.30;2.10;;;15.50;99.90;;;;;;5081715;28;20182;-62
2021/08/05 06:28:33;;;;;;;2.40;2.20;;;15.50;99.90;;;;;;5080751;28;20171;-51
2021/08/05 06:31:05;;;;;;;2.30;2.10;;;15.60;99.90;;;;;;5076530;28;20703;-51
2021/08/05 06:33:32;;;;;;;2.33;2.13;;;15.70;99.90;;;;;;5078809;28;20546;-52
2021/08/05 06:35:58;;;;;;;2.97;2.17;;;15.70;99.90;;;;;;5076683;28;20214;-53
2021/08/05 06:38:23;;;;;;;2.40;2.20;;;15.70;99.90;;;;;;5077086;28;20202;-62
2021/08/05 06:40:49;;;;;;;2.57;2.20;;;15.70;99.90;;;;;;5080760;28;20189;-57
2021/08/05 06:43:15;;;;;;;2.50;2.30;;;15.80;99.90;;;;;;5079305;28;20220;-58
2021/08/05 06:45:41;;;;;;;2.07;1.90;;;16.00;99.90;;;;;;5079061;28;20178;-53
2021/08/05 06:48:06;;;;;;;2.60;2.40;;;16.10;99.90;;;;;;5081488;28;20172;-56
2021/08/05 06:50:32;;;;;;;2.70;2.50;;;16.10;99.90;;;;;;5079959;28;20228;-54
2021/08/05 06:52:58;;;;;;;3.33;2.47;;;16.30;99.90;;;;;;5077527;28;20679;-53
2021/08/05 06:55:23;;;;;;;2.47;2.27;;;16.40;99.90;;;;;;5076963;28;20588;-51
2021/08/05 06:57:49;;;;;;;2.50;2.30;;;16.50;99.90;;;;;;5077089;28;20239;-54
2021/08/05 07:00:15;;;;;;;2.83;2.63;;;16.20;99.90;;;;;;5076916;28;20212;-55
2021/08/05 07:02:41;;;;;;;2.60;2.40;;;16.00;99.90;;;;;;5075826;28;20166;-53
2021/08/05 07:05:09;;;;;;;2.50;2.30;;;16.40;99.90;;;;;;5078846;28;20258;-60
2021/08/05 07:07:36;;;;;;;2.70;2.50;;;15.80;99.90;;;;;;5083592;28;20205;-62
2021/08/05 07:10:02;;;;;;;2.77;2.57;;;15.80;99.90;;;;;;5079458;28;20237;-57
2021/08/05 07:12:28;;;;;;;2.70;2.50;;;15.80;99.90;;;;;;5079873;28;20170;-62
2021/08/05 07:14:54;;;;;;;2.67;2.47;;;15.80;99.90;;;;;;5077963;28;20182;-53
2021/08/05 07:17:20;;;;;;;2.33;2.23;;;15.90;99.90;;;;;;5077737;28;20174;-54
2021/08/05 07:19:45;;;;;;;2.57;2.40;;;16.00;99.90;;;;;;5078808;28;20178;-53
2021/08/05 07:22:11;;;;;;;2.47;2.27;;;16.10;99.90;;;;;;5077557;28;20175;-57
2021/08/05 07:24:37;;;;;;;2.30;2.10;;;16.00;99.90;;;;;;5074686;28;20209;-58
2021/08/05 07:27:04;;;;;;;2.63;2.43;;;16.00;99.90;;;;;;5066652;28;20197;-51
2021/08/05 07:29:30;;;;;;;2.40;2.20;;;15.90;99.90;;;;;;5067526;28;20190;-56
2021/08/05 07:31:57;;;;;;;2.10;2.00;;;15.90;99.90;;;;;;5066967;28;20254;-62
2021/08/05 07:34:23;;;;;;;2.27;2.03;;;16.00;99.90;;;;;;5066318;28;20186;-53
2021/08/05 07:36:48;;;;;;;2.10;2.00;;;16.10;99.90;;;;;;5067479;28;20550;-54
2021/08/05 07:39:14;;;;;;;2.60;1.90;;;16.20;99.90;;;;;;5068706;28;20204;-52
2021/08/05 07:41:40;;;;;;;3.13;1.80;;;16.20;99.90;;;;;;5071566;28;20178;-60
2021/08/05 07:44:07;;;;;;;1.87;1.77;;;16.10;99.90;;;;;;5066468;28;20273;-62
2021/08/05 07:46:34;;;;;;;2.70;1.80;;;16.00;99.90;;;;;;5068473;28;20182;-60
2021/08/05 07:49:00;;;;;;;2.30;2.20;;;16.00;99.90;;;;;;5068470;28;20299;-55
2021/08/05 07:51:26;;;;;;;1.80;1.70;;;16.00;99.90;;;;;;5066377;28;20291;-52
2021/08/05 07:53:52;;;;;;;2.30;1.87;;;16.00;99.90;;;;;;5064476;28;20662;-55
2021/08/05 07:56:21;;;;;;;2.07;1.97;;;16.10;99.90;;;;;;5064664;28;20164;-51
2021/08/05 07:58:47;;;;;;;1.90;1.80;;;16.10;99.90;;;;;;5066569;28;20264;-52
2021/08/05 08:01:12;;;;;;;2.00;1.90;;;16.10;99.90;;;;;;5067360;28;20648;-53
2021/08/05 08:03:38;;;;;;;1.90;1.80;;;16.10;99.90;;;;;;5064153;28;20282;-55
2021/08/05 08:06:03;;;;;;;2.17;2.00;;;16.00;99.90;;;;;;5066557;28;20262;-52
2021/08/05 08:08:29;;;;;;;1.80;1.70;;;16.00;99.90;;;;;;5067730;28;20215;-62
2021/08/05 08:10:54;;;;;;;1.67;1.57;;;15.90;99.90;;;;;;5065113;28;20183;-59
2021/08/05 08:13:20;;;;;;;3.20;1.80;;;16.00;99.90;;;;;;5068209;28;20722;-60
2021/08/05 08:15:46;;;;;;;1.90;1.80;;;15.90;99.90;;;;;;5066773;28;20175;-59
2021/08/05 08:18:12;;;;;;;3.00;1.90;;;16.10;99.90;;;;;;5064369;28;20209;-51
2021/08/05 08:20:39;;;;;;;2.20;2.00;;;16.10;99.90;;;;;;5066629;28;20194;-60
2021/08/05 08:23:04;;;;;;;2.63;2.20;;;16.00;99.90;;;;;;5065775;28;20695;-62
2021/08/05 08:25:31;;;;;;;2.20;2.03;;;15.90;99.90;;;;;;5065680;28;20182;-61
2021/08/05 08:27:57;;;;;;;2.03;1.93;;;15.90;99.90;;;;;;5065130;28;20281;-56
2021/08/05 08:30:24;;;;;;;2.20;2.10;;;15.90;99.90;;;;;;5064763;28;20607;-54
2021/08/05 08:32:50;;;;;;;2.03;1.90;;;16.00;99.90;;;;;;5066360;28;20198;-61
2021/08/05 08:35:16;;;;;;;2.20;2.10;;;16.00;99.90;;;;;;5068025;28;20177;-52
2021/08/05 08:37:42;;;;;;;2.50;2.30;;;16.10;99.90;;;;;;5064669;28;20598;-60
2021/08/05 08:40:08;;;;;;;2.47;2.27;;;16.20;99.90;;;;;;5065407;28;20166;-54
2021/08/05 08:42:34;;;;;;;2.77;2.57;;;16.20;99.90;;;;;;5066107;28;20178;-59
2021/08/05 08:44:59;;;;;;;2.67;2.47;;;16.10;99.90;;;;;;5062361;28;20172;-61
2021/08/05 08:47:28;;;;;;;2.67;2.47;;;16.10;99.90;;;;;;5065428;28;20181;-62
2021/08/05 08:49:55;;;;;;;2.40;2.30;;;16.10;99.90;;;;;;5066911;28;20172;-60
2021/08/05 08:52:24;;;;;;;2.60;2.40;;;16.10;99.90;;;;;;5063893;28;20160;-51
2021/08/05 08:54:50;;;;;;;3.07;2.33;;;16.10;99.90;;;;;;5064541;28;20194;-52
2021/08/05 08:57:20;;;;;;;2.33;2.20;;;16.20;99.90;;;;;;5066554;28;20216;-54
2021/08/05 08:59:46;;;;;;;3.13;2.87;;;16.20;99.90;;;;;;5061604;28;20180;-60
2021/08/05 09:02:13;;;;;;;2.60;2.40;;;16.10;99.90;;;;;;5063376;28;20165;-57
2021/08/05 09:04:39;;;;;;;2.87;2.67;;;16.20;99.90;;;;;;5064249;28;20260;-57
2021/08/05 09:07:05;;;;;;;2.73;2.47;;;16.20;99.90;;;;;;5065607;28;20218;-58
2021/08/05 09:09:31;;;;;;;2.87;2.67;;;16.10;99.90;;;;;;5067910;28;20675;-58
2021/08/05 09:11:56;;;;;;;3.13;2.30;;;16.00;99.90;;;;;;5066516;28;20221;-60
2021/08/05 09:14:49;;;;;;;3.27;2.93;;;16.10;99.90;;;;;;5065937;28;20195;-61
2021/08/05 09:17:32;;;;;;;3.00;2.80;;;16.30;99.90;;;;;;5066384;28;20202;-59
2021/08/05 09:20:00;;;;;;;2.87;2.67;;;16.40;99.90;;;;;;5065601;28;20259;-53
2021/08/05 09:22:30;;;;;;;3.47;2.87;;;16.30;99.90;;;;;;5064179;28;20171;-51
2021/08/05 09:24:56;;;;;;;3.00;2.80;;;16.40;99.90;;;;;;5066900;28;20186;-51
2021/08/05 09:27:32;;;;;;;2.80;2.60;;;16.50;99.90;;;;;;5065431;28;20170;-60
2021/08/05 09:29:59;;;;;;;3.53;3.20;;;16.70;99.90;;;;;;5066912;28;20231;-54
2021/08/05 09:32:29;;;;;;;3.17;2.97;;;16.70;99.90;;;;;;5064692;28;20181;-56
2021/08/05 09:35:06;;;;;;;3.43;2.80;;;16.80;99.90;;;;;;5061217;28;20207;-59
2021/08/05 09:37:40;;;;;;;3.00;2.70;;;16.80;99.90;;;;;;5055656;28;20171;-54
2021/08/05 09:40:15;;;;;;;3.47;3.17;;;16.80;99.90;;;;;;5054142;28;20213;-52
2021/08/05 09:43:01;;;;;;;3.43;3.13;;;16.90;99.90;;;;;;5053853;28;20254;-53
2021/08/05 09:45:34;;;;;;;3.07;2.87;;;16.90;99.90;;;;;;5054590;28;20584;-51
2021/08/05 09:48:00;;;;;;;3.53;3.23;;;16.80;99.90;;;;;;5055716;28;20541;-58
2021/08/05 09:50:25;;;;;;;3.07;2.83;;;16.70;99.90;;;;;;5056087;28;20174;-61
2021/08/05 09:53:05;;;;;;;2.93;2.73;;;16.70;99.90;;;;;;5054993;28;20720;-59
2021/08/05 09:55:30;;;;;;;2.90;2.70;;;16.70;99.90;;;;;;5058121;28;20170;-58
2021/08/05 09:57:57;;;;;;;2.63;2.43;;;16.80;99.90;;;;;;5074610;28;20204;-57
2021/08/05 10:00:22;;;;;;;2.70;2.50;;;16.90;99.90;;;;;;5076214;28;20226;-61
2021/08/05 10:02:50;;;;;;;2.33;2.13;;;16.90;99.90;;;;;;5079099;28;20228;-60
2021/08/05 10:05:19;;;;;;;2.97;2.40;;;16.80;99.90;;;;;;5076527;28;20219;-60
2021/08/05 10:07:53;;;;;;;2.40;2.30;;;16.80;99.90;;;;;;5074699;28;20204;-59
2021/08/05 10:10:23;;;;;;;3.17;2.93;;;16.80;99.90;;;;;;5075282;28;20179;-53
2021/08/05 10:13:00;;;;;;;2.63;2.43;;;16.80;99.90;;;;;;5074630;28;20184;-58
2021/08/05 10:15:28;;;;;;;2.93;2.73;;;16.80;99.90;;;;;;5077326;28;20171;-60
2021/08/05 10:17:55;;;;;;;2.70;2.50;;;16.90;99.90;;;;;;5076507;28;20177;-52
2021/08/05 10:20:23;;;;;;;2.40;2.20;;;17.00;99.90;;;;;;5074831;28;20250;-54
2021/08/05 10:22:50;;;;;;;2.97;2.77;;;17.10;99.90;;;;;;5076966;28;20201;-62
2021/08/05 10:25:19;;;;;;;2.97;2.77;;;17.10;99.90;;;;;;5077526;28;20565;-62
2021/08/05 10:27:46;;;;;;;2.60;2.40;;;17.00;99.90;;;;;;5074253;28;20171;-59
2021/08/05 10:30:15;;;;;;;2.67;2.47;;;16.90;99.90;;;;;;5076855;28;20195;-63
2021/08/05 10:32:41;;;;;;;2.80;2.60;;;17.10;99.90;;;;;;5073958;28;20580;-57
2021/08/05 10:35:08;;;;;;;2.60;2.40;;;17.10;99.90;;;;;;5076629;28;20194;-53
2021/08/05 10:37:34;;;;;;;2.70;2.50;;;17.20;99.90;;;;;;5076679;28;20223;-54
2021/08/05 10:40:01;;;;;;;2.90;2.70;;;17.30;99.90;;;;;;5076318;28;20196;-53
2021/08/05 10:42:27;;;;;;;2.87;2.67;;;17.30;99.90;;;;;;5074354;28;20192;-61
2021/08/05 10:44:52;;;;;;;4.30;2.60;;;17.30;99.90;;;;;;5074129;28;20262;-57
2021/08/05 10:47:25;;;;;;;2.20;2.10;;;17.40;99.90;;;;;;5074997;28;20185;-52
2021/08/05 10:49:54;;;;;;;2.90;2.63;;;17.40;99.90;;;;;;5075327;28;20159;-58
2021/08/05 10:52:35;;;;;;;2.53;2.37;;;17.20;99.90;;;;;;5079677;28;20186;-56
2021/08/05 10:55:20;;;;;;;3.40;3.10;;;17.00;99.90;;;;;;5077368;28;20296;-58
2021/08/05 10:58:06;;;;;;;3.07;2.83;;;16.80;99.90;;;;;;5078277;28;20176;-61
2021/08/05 11:00:52;;;;;;;2.90;2.70;;;16.70;99.90;;;;;;5077288;28;20618;-61
2021/08/05 11:03:33;;;;;;;3.27;3.07;;;16.70;99.90;;;;;;5077437;28;20226;-61
2021/08/05 11:05:59;;;;;;;2.90;2.70;;;16.70;99.90;;;;;;5077316;28;20173;-59
2021/08/05 11:08:27;;;;;;;3.43;2.80;;;16.60;99.90;;;;;;5078263;28;20212;-60
2021/08/05 11:11:32;;;;;;;2.30;2.20;;;16.50;99.90;;;;;;5078426;28;20175;-62
2021/08/05 11:14:00;;;;;;;2.17;2.07;;;16.40;99.90;;;;;;5015790;28;20206;-60
2021/08/05 11:16:50;;;;;;;2.90;2.70;;;16.30;99.90;;;;;;5015187;28;20552;-58
2021/08/05 11:19:33;;;;;;;3.00;2.70;;;16.20;99.90;;;;;;5016647;28;20181;-62
2021/08/05 11:22:33;;;;;;;4.53;3.03;;;16.20;99.90;;;;;;5015801;28;20192;-60
2021/08/05 11:24:59;;;;;;;3.70;3.40;;;16.20;99.90;;;;;;5011784;28;20680;-53
2021/08/05 11:27:25;;;;;;;3.60;3.30;;;16.30;99.90;;;;;;5015427;28;20177;-60
2021/08/05 11:29:51;;;;;;;3.97;3.63;;;16.30;99.90;;;;;;5014669;28;20202;-60
2021/08/05 11:32:23;;;;;;;3.60;3.30;;;16.40;99.90;;;;;;5014363;28;20184;-59
2021/08/05 11:34:59;;;;;;;4.10;3.70;;;16.60;99.90;;;;;;5014821;28;20638;-61
2021/08/05 11:37:26;;;;;;;4.13;3.73;;;16.70;99.90;;;;;;5014242;28;20172;-57
2021/08/05 11:39:56;;;;;;;3.90;3.60;;;16.60;99.90;;;;;;5013442;28;20178;-51
2021/08/05 11:42:24;;;;;;;4.07;3.60;;;16.60;99.90;;;;;;5013707;28;20226;-56
2021/08/05 11:45:08;;;;;;;4.10;3.70;;;16.70;99.90;;;;;;5050832;28;20179;-59
2021/08/05 11:47:33;;;;;;;4.07;3.77;;;16.70;99.90;;;;;;5076024;28;20176;-61
2021/08/05 11:50:02;;;;;;;4.40;4.00;;;16.70;99.90;;;;;;5075509;28;20168;-66
2021/08/05 11:52:27;;;;;;;4.40;4.00;;;16.60;99.90;;;;;;5075317;28;20566;-62
2021/08/05 11:55:15;;;;;;;5.77;4.37;;;16.60;99.90;;;;;;5075354;28;20291;-63
2021/08/05 11:57:42;;;;;;;4.53;4.13;;;16.70;99.90;;;;;;5075528;28;20169;-65
2021/08/05 12:00:12;;;;;;;3.63;3.33;;;16.70;99.90;;;;;;5077164;28;20629;-62
2021/08/05 12:02:39;;;;;;;4.57;4.17;;;16.80;99.90;;;;;;5074278;28;20576;-53
2021/08/05 12:05:05;;;;;;;4.37;3.97;;;16.80;99.90;;;;;;5076030;28;20178;-61
2021/08/05 12:07:36;;;;;;;4.13;3.73;;;16.80;99.90;;;;;;5075399;28;20176;-59
2021/08/05 12:10:31;;;;;;;4.00;3.70;;;16.90;99.90;;;;;;5075742;28;20244;-59
2021/08/05 12:13:00;;;;;;;4.90;4.00;;;16.90;99.90;;;;;;5072853;28;20662;-63
2021/08/05 12:15:27;;;;;;;3.90;3.60;;;16.90;99.90;;;;;;5075459;28;20236;-66
2021/08/05 12:17:54;;;;;;;3.53;3.23;;;16.90;99.90;;;;;;5079480;28;20171;-66
2021/08/05 12:20:32;;;;;;;3.90;3.60;;;17.00;99.90;;;;;;5073775;28;20225;-65
2021/08/05 12:23:10;;;;;;;4.10;3.70;;;16.90;99.90;;;;;;5071825;28;20193;-66
2021/08/05 12:26:00;;;;;;;4.17;3.77;;;16.90;99.90;;;;;;5067790;28;20178;-61
2021/08/05 12:28:29;;;;;;;4.67;3.67;;;16.90;99.90;;;;;;5073205;28;20647;-60
2021/08/05 12:30:57;;;;;;;3.90;3.60;;;17.00;99.90;;;;;;5073329;28;20182;-60
2021/08/05 12:33:25;;;;;;;4.30;3.50;;;17.30;99.90;;;;;;5073827;28;20246;-64
2021/08/05 12:35:58;;;;;;;3.70;3.40;;;17.50;99.90;;;;;;5075678;28;20175;-63
2021/08/05 12:38:23;;;;;;;4.13;3.73;;;17.80;99.90;;;;;;5073978;28;20608;-64
2021/08/05 12:40:50;;;;;;;3.57;3.27;;;17.90;99.90;;;;;;5075192;28;20621;-63
2021/08/05 12:43:16;;;;;;;3.40;3.10;;;18.30;99.90;;;;;;5073508;28;20206;-63
2021/08/05 12:45:45;;;;;;;5.17;3.50;;;18.40;99.90;;;;;;5075007;28;20175;-56
2021/08/05 12:48:12;;;;;;;3.07;2.87;;;18.70;99.90;;;;;;5075224;28;20179;-62
2021/08/05 12:50:46;;;;;;;2.70;2.50;;;19.10;99.90;;;;;;5075708;28;20202;-63
2021/08/05 12:53:26;;;;;;;2.70;2.50;;;19.10;99.90;;;;;;5074620;28;20194;-60